sensor_id;sensor_type;location;lat;lon;timestamp;P1;durP1;ratioP1;P2;durP2;ratioP2
27491;SDS011;14927;51.210;6.838;2023-08-07T00:02:31;4.80;;;1.30;;
27491;SDS011;14927;51.210;6.838;2023-08-07T00:05:16;4.57;;;1.23;;
27491;SDS011;14927;51.210;6.838;2023-08-07T00:08:01;4.53;;;1.00;;
27491;SDS011;14927;51.210;6.838;2023-08-07T00:10:45;3.00;;;0.90;;
27491;SDS011;14927;51.210;6.838;2023-08-07T00:13:31;6.03;;;1.33;;
27491;SDS011;14927;51.210;6.838;2023-08-07T00:16:16;8.02;;;1.33;;
27491;SDS011;14927;51.210;6.838;2023-08-07T00:19:01;9.02;;;1.45;;
27491;SDS011;14927;51.210;6.838;2023-08-07T00:21:46;5.20;;;1.20;;
27491;SDS011;14927;51.210;6.838;2023-08-07T00:24:31;7.47;;;1.55;;
27491;SDS011;14927;51.210;6.838;2023-08-07T00:27:16;3.58;;;1.05;;
27491;SDS011;14927;51.210;6.838;2023-08-07T00:30:00;4.85;;;1.70;;
27491;SDS011;14927;51.210;6.838;2023-08-07T00:32:45;11.10;;;2.30;;
27491;SDS011;14927;51.210;6.838;2023-08-07T00:35:30;7.80;;;1.35;;
27491;SDS011;14927;51.210;6.838;2023-08-07T00:38:15;7.93;;;1.38;;
27491;SDS011;14927;51.210;6.838;2023-08-07T00:40:59;4.20;;;1.45;;
27491;SDS011;14927;51.210;6.838;2023-08-07T00:43:44;5.40;;;1.40;;
27491;SDS011;14927;51.210;6.838;2023-08-07T00:46:29;6.35;;;1.30;;
27491;SDS011;14927;51.210;6.838;2023-08-07T00:49:13;7.05;;;1.02;;
27491;SDS011;14927;51.210;6.838;2023-08-07T00:51:58;11.45;;;1.70;;
27491;SDS011;14927;51.210;6.838;2023-08-07T00:54:43;5.88;;;1.45;;
27491;SDS011;14927;51.210;6.838;2023-08-07T00:57:28;7.68;;;1.50;;
27491;SDS011;14927;51.210;6.838;2023-08-07T01:00:14;6.15;;;1.60;;
27491;SDS011;14927;51.210;6.838;2023-08-07T01:03:00;6.70;;;1.70;;
27491;SDS011;14927;51.210;6.838;2023-08-07T01:05:48;6.18;;;1.30;;
27491;SDS011;14927;51.210;6.838;2023-08-07T01:08:33;8.30;;;1.98;;
27491;SDS011;14927;51.210;6.838;2023-08-07T01:14:51;5.53;;;1.48;;
27491;SDS011;14927;51.210;6.838;2023-08-07T01:18:12;5.47;;;1.67;;
27491;SDS011;14927;51.210;6.838;2023-08-07T01:20:58;8.88;;;2.17;;
27491;SDS011;14927;51.210;6.838;2023-08-07T01:23:42;7.55;;;1.73;;
27491;SDS011;14927;51.210;6.838;2023-08-07T01:26:27;9.20;;;2.22;;
27491;SDS011;14927;51.210;6.838;2023-08-07T01:29:25;11.13;;;1.58;;
27491;SDS011;14927;51.210;6.838;2023-08-07T01:33:22;7.47;;;1.73;;
27491;SDS011;14927;51.210;6.838;2023-08-07T01:35:49;5.72;;;1.90;;
27491;SDS011;14927;51.210;6.838;2023-08-07T01:38:38;7.32;;;1.48;;
27491;SDS011;14927;51.210;6.838;2023-08-07T01:41:24;9.13;;;1.65;;
27491;SDS011;14927;51.210;6.838;2023-08-07T01:44:09;8.75;;;1.98;;
27491;SDS011;14927;51.210;6.838;2023-08-07T01:46:54;6.28;;;1.85;;
27491;SDS011;14927;51.210;6.838;2023-08-07T01:49:38;6.10;;;1.50;;
27491;SDS011;14927;51.210;6.838;2023-08-07T01:52:25;9.23;;;2.20;;
27491;SDS011;14927;51.210;6.838;2023-08-07T01:55:09;6.97;;;1.63;;
27491;SDS011;14927;51.210;6.838;2023-08-07T01:57:54;7.32;;;2.28;;
27491;SDS011;14927;51.210;6.838;2023-08-07T02:00:39;9.50;;;2.05;;
27491;SDS011;14927;51.210;6.838;2023-08-07T02:03:23;8.43;;;1.92;;
27491;SDS011;14927;51.210;6.838;2023-08-07T02:06:08;12.82;;;2.95;;
27491;SDS011;14927;51.210;6.838;2023-08-07T02:08:53;8.40;;;2.47;;
27491;SDS011;14927;51.210;6.838;2023-08-07T02:11:37;7.05;;;1.73;;
27491;SDS011;14927;51.210;6.838;2023-08-07T02:14:22;9.57;;;2.10;;
27491;SDS011;14927;51.210;6.838;2023-08-07T02:17:07;5.97;;;1.80;;
27491;SDS011;14927;51.210;6.838;2023-08-07T02:19:52;9.20;;;2.17;;
27491;SDS011;14927;51.210;6.838;2023-08-07T02:22:37;7.72;;;1.88;;
27491;SDS011;14927;51.210;6.838;2023-08-07T02:25:21;9.38;;;2.58;;
27491;SDS011;14927;51.210;6.838;2023-08-07T02:28:06;8.18;;;1.75;;
27491;SDS011;14927;51.210;6.838;2023-08-07T02:30:50;7.40;;;2.33;;
27491;SDS011;14927;51.210;6.838;2023-08-07T02:33:37;5.55;;;2.10;;
27491;SDS011;14927;51.210;6.838;2023-08-07T02:36:22;6.68;;;1.65;;
27491;SDS011;14927;51.210;6.838;2023-08-07T02:39:06;6.88;;;2.05;;
27491;SDS011;14927;51.210;6.838;2023-08-07T02:41:51;5.22;;;1.77;;
27491;SDS011;14927;51.210;6.838;2023-08-07T02:44:36;7.22;;;2.22;;
27491;SDS011;14927;51.210;6.838;2023-08-07T02:47:20;7.28;;;1.90;;
27491;SDS011;14927;51.210;6.838;2023-08-07T02:50:05;10.52;;;2.65;;
27491;SDS011;14927;51.210;6.838;2023-08-07T02:52:50;7.47;;;1.98;;
27491;SDS011;14927;51.210;6.838;2023-08-07T02:55:35;10.25;;;2.45;;
27491;SDS011;14927;51.210;6.838;2023-08-07T02:58:19;9.60;;;2.17;;
27491;SDS011;14927;51.210;6.838;2023-08-07T03:01:04;8.98;;;2.38;;
27491;SDS011;14927;51.210;6.838;2023-08-07T03:03:52;12.57;;;2.25;;
27491;SDS011;14927;51.210;6.838;2023-08-07T03:06:37;8.68;;;2.58;;
27491;SDS011;14927;51.210;6.838;2023-08-07T03:09:21;9.13;;;2.10;;
27491;SDS011;14927;51.210;6.838;2023-08-07T03:12:06;10.82;;;2.08;;
27491;SDS011;14927;51.210;6.838;2023-08-07T03:14:51;9.25;;;2.53;;
27491;SDS011;14927;51.210;6.838;2023-08-07T03:17:36;9.20;;;2.10;;
27491;SDS011;14927;51.210;6.838;2023-08-07T03:20:20;8.88;;;1.92;;
27491;SDS011;14927;51.210;6.838;2023-08-07T03:23:05;12.43;;;2.72;;
27491;SDS011;14927;51.210;6.838;2023-08-07T03:25:50;7.15;;;2.58;;
27491;SDS011;14927;51.210;6.838;2023-08-07T03:28:35;7.93;;;2.00;;
27491;SDS011;14927;51.210;6.838;2023-08-07T03:31:20;9.25;;;2.67;;
27491;SDS011;14927;51.210;6.838;2023-08-07T03:34:04;11.77;;;2.30;;
27491;SDS011;14927;51.210;6.838;2023-08-07T03:36:49;9.23;;;2.33;;
27491;SDS011;14927;51.210;6.838;2023-08-07T03:39:34;6.47;;;1.83;;
27491;SDS011;14927;51.210;6.838;2023-08-07T03:42:18;8.73;;;2.08;;
27491;SDS011;14927;51.210;6.838;2023-08-07T03:45:03;8.00;;;2.05;;
27491;SDS011;14927;51.210;6.838;2023-08-07T03:47:48;8.18;;;2.10;;
27491;SDS011;14927;51.210;6.838;2023-08-07T03:50:33;10.70;;;2.38;;
27491;SDS011;14927;51.210;6.838;2023-08-07T03:53:20;8.48;;;2.20;;
27491;SDS011;14927;51.210;6.838;2023-08-07T03:56:04;11.48;;;2.42;;
27491;SDS011;14927;51.210;6.838;2023-08-07T03:58:49;14.23;;;3.00;;
27491;SDS011;14927;51.210;6.838;2023-08-07T04:01:34;10.50;;;2.55;;
27491;SDS011;14927;51.210;6.838;2023-08-07T04:04:18;7.80;;;2.50;;
27491;SDS011;14927;51.210;6.838;2023-08-07T04:07:03;13.93;;;3.30;;
27491;SDS011;14927;51.210;6.838;2023-08-07T04:09:48;7.20;;;2.45;;
27491;SDS011;14927;51.210;6.838;2023-08-07T04:12:32;12.38;;;2.30;;
27491;SDS011;14927;51.210;6.838;2023-08-07T04:15:17;10.15;;;2.55;;
27491;SDS011;14927;51.210;6.838;2023-08-07T04:18:02;8.30;;;2.30;;
27491;SDS011;14927;51.210;6.838;2023-08-07T04:20:50;14.20;;;2.53;;
27491;SDS011;14927;51.210;6.838;2023-08-07T04:23:38;9.77;;;2.10;;
27491;SDS011;14927;51.210;6.838;2023-08-07T04:26:23;8.38;;;2.47;;
27491;SDS011;14927;51.210;6.838;2023-08-07T04:29:08;9.38;;;2.33;;
27491;SDS011;14927;51.210;6.838;2023-08-07T04:31:52;11.93;;;2.65;;
27491;SDS011;14927;51.210;6.838;2023-08-07T04:34:37;8.75;;;2.90;;
27491;SDS011;14927;51.210;6.838;2023-08-07T04:37:21;9.73;;;2.92;;
27491;SDS011;14927;51.210;6.838;2023-08-07T04:40:06;11.90;;;2.90;;
27491;SDS011;14927;51.210;6.838;2023-08-07T04:42:52;10.48;;;2.70;;
27491;SDS011;14927;51.210;6.838;2023-08-07T04:45:37;11.60;;;2.55;;
27491;SDS011;14927;51.210;6.838;2023-08-07T04:48:23;10.05;;;2.60;;
27491;SDS011;14927;51.210;6.838;2023-08-07T04:51:09;12.00;;;2.88;;
27491;SDS011;14927;51.210;6.838;2023-08-07T04:53:53;12.82;;;2.75;;
27491;SDS011;14927;51.210;6.838;2023-08-07T04:56:40;7.50;;;2.45;;
27491;SDS011;14927;51.210;6.838;2023-08-07T04:59:27;13.38;;;2.63;;
27491;SDS011;14927;51.210;6.838;2023-08-07T05:02:13;13.30;;;3.00;;
27491;SDS011;14927;51.210;6.838;2023-08-07T05:04:58;10.50;;;2.67;;
27491;SDS011;14927;51.210;6.838;2023-08-07T05:07:43;11.60;;;3.22;;
27491;SDS011;14927;51.210;6.838;2023-08-07T05:10:27;9.35;;;2.95;;
27491;SDS011;14927;51.210;6.838;2023-08-07T05:13:12;7.38;;;2.58;;
27491;SDS011;14927;51.210;6.838;2023-08-07T05:15:57;6.50;;;2.67;;
27491;SDS011;14927;51.210;6.838;2023-08-07T05:18:41;11.77;;;2.85;;
27491;SDS011;14927;51.210;6.838;2023-08-07T05:21:26;11.90;;;3.20;;
27491;SDS011;14927;51.210;6.838;2023-08-07T05:24:10;7.82;;;2.42;;
27491;SDS011;14927;51.210;6.838;2023-08-07T05:26:56;10.10;;;2.67;;
27491;SDS011;14927;51.210;6.838;2023-08-07T05:29:41;10.80;;;2.95;;
27491;SDS011;14927;51.210;6.838;2023-08-07T05:32:28;13.18;;;3.65;;
27491;SDS011;14927;51.210;6.838;2023-08-07T05:35:13;9.23;;;2.47;;
27491;SDS011;14927;51.210;6.838;2023-08-07T05:37:58;9.50;;;2.40;;
27491;SDS011;14927;51.210;6.838;2023-08-07T05:40:42;8.98;;;3.00;;
27491;SDS011;14927;51.210;6.838;2023-08-07T05:43:27;10.85;;;3.17;;
27491;SDS011;14927;51.210;6.838;2023-08-07T05:46:11;8.55;;;2.75;;
27491;SDS011;14927;51.210;6.838;2023-08-07T05:48:56;7.85;;;2.97;;
27491;SDS011;14927;51.210;6.838;2023-08-07T05:51:41;7.80;;;2.90;;
27491;SDS011;14927;51.210;6.838;2023-08-07T05:54:25;12.45;;;3.28;;
27491;SDS011;14927;51.210;6.838;2023-08-07T05:57:10;12.07;;;3.33;;
27491;SDS011;14927;51.210;6.838;2023-08-07T05:59:54;7.13;;;2.55;;
27491;SDS011;14927;51.210;6.838;2023-08-07T06:02:39;8.27;;;3.17;;
27491;SDS011;14927;51.210;6.838;2023-08-07T06:05:24;11.48;;;3.13;;
27491;SDS011;14927;51.210;6.838;2023-08-07T06:08:08;9.55;;;3.10;;
27491;SDS011;14927;51.210;6.838;2023-08-07T06:10:53;9.77;;;3.17;;
27491;SDS011;14927;51.210;6.838;2023-08-07T06:13:38;11.55;;;3.30;;
27491;SDS011;14927;51.210;6.838;2023-08-07T06:16:25;11.27;;;3.70;;
27491;SDS011;14927;51.210;6.838;2023-08-07T06:19:10;8.75;;;3.40;;
27491;SDS011;14927;51.210;6.838;2023-08-07T06:21:55;10.52;;;3.20;;
27491;SDS011;14927;51.210;6.838;2023-08-07T06:24:40;5.85;;;2.97;;
27491;SDS011;14927;51.210;6.838;2023-08-07T06:27:24;8.90;;;2.88;;
27491;SDS011;14927;51.210;6.838;2023-08-07T06:30:09;11.77;;;3.15;;
27491;SDS011;14927;51.210;6.838;2023-08-07T06:32:54;8.77;;;3.13;;
27491;SDS011;14927;51.210;6.838;2023-08-07T06:35:39;8.60;;;3.40;;
27491;SDS011;14927;51.210;6.838;2023-08-07T06:38:26;10.07;;;3.47;;
27491;SDS011;14927;51.210;6.838;2023-08-07T06:41:10;8.23;;;2.90;;
27491;SDS011;14927;51.210;6.838;2023-08-07T06:43:55;7.55;;;2.88;;
27491;SDS011;14927;51.210;6.838;2023-08-07T06:46:40;8.43;;;2.85;;
27491;SDS011;14927;51.210;6.838;2023-08-07T06:49:25;5.20;;;2.20;;
27491;SDS011;14927;51.210;6.838;2023-08-07T06:52:09;4.97;;;2.67;;
27491;SDS011;14927;51.210;6.838;2023-08-07T06:54:54;8.07;;;2.78;;
27491;SDS011;14927;51.210;6.838;2023-08-07T06:57:39;7.45;;;2.60;;
27491;SDS011;14927;51.210;6.838;2023-08-07T07:00:23;5.72;;;2.50;;
27491;SDS011;14927;51.210;6.838;2023-08-07T07:03:08;8.73;;;2.85;;
27491;SDS011;14927;51.210;6.838;2023-08-07T07:05:53;4.95;;;2.30;;
27491;SDS011;14927;51.210;6.838;2023-08-07T07:08:39;6.22;;;2.40;;
27491;SDS011;14927;51.210;6.838;2023-08-07T07:11:23;8.50;;;2.70;;
27491;SDS011;14927;51.210;6.838;2023-08-07T07:14:08;8.52;;;3.10;;
27491;SDS011;14927;51.210;6.838;2023-08-07T07:16:53;6.35;;;2.40;;
27491;SDS011;14927;51.210;6.838;2023-08-07T07:19:38;7.63;;;2.58;;
27491;SDS011;14927;51.210;6.838;2023-08-07T07:22:22;6.50;;;2.20;;
27491;SDS011;14927;51.210;6.838;2023-08-07T07:25:07;7.53;;;2.60;;
27491;SDS011;14927;51.210;6.838;2023-08-07T07:27:51;6.20;;;2.47;;
27491;SDS011;14927;51.210;6.838;2023-08-07T07:30:37;9.10;;;2.97;;
27491;SDS011;14927;51.210;6.838;2023-08-07T07:33:23;7.75;;;2.22;;
27491;SDS011;14927;51.210;6.838;2023-08-07T07:36:07;6.55;;;2.47;;
27491;SDS011;14927;51.210;6.838;2023-08-07T07:38:59;7.63;;;2.03;;
27491;SDS011;14927;51.210;6.838;2023-08-07T07:41:44;8.40;;;3.00;;
27491;SDS011;14927;51.210;6.838;2023-08-07T07:44:28;8.35;;;2.53;;
27491;SDS011;14927;51.210;6.838;2023-08-07T07:47:13;9.25;;;3.38;;
27491;SDS011;14927;51.210;6.838;2023-08-07T07:50:05;7.05;;;2.63;;
27491;SDS011;14927;51.210;6.838;2023-08-07T07:52:52;9.35;;;2.55;;
27491;SDS011;14927;51.210;6.838;2023-08-07T07:55:36;11.30;;;2.92;;
27491;SDS011;14927;51.210;6.838;2023-08-07T07:58:21;15.63;;;3.08;;
27491;SDS011;14927;51.210;6.838;2023-08-07T08:01:08;12.40;;;2.95;;
27491;SDS011;14927;51.210;6.838;2023-08-07T08:03:52;12.23;;;2.92;;
27491;SDS011;14927;51.210;6.838;2023-08-07T08:06:37;12.73;;;3.88;;
27491;SDS011;14927;51.210;6.838;2023-08-07T08:09:24;10.65;;;3.60;;
27491;SDS011;14927;51.210;6.838;2023-08-07T08:12:08;10.35;;;3.10;;
27491;SDS011;14927;51.210;6.838;2023-08-07T08:14:54;11.55;;;2.53;;
27491;SDS011;14927;51.210;6.838;2023-08-07T08:17:38;11.07;;;3.20;;
27491;SDS011;14927;51.210;6.838;2023-08-07T08:20:24;9.95;;;2.90;;
27491;SDS011;14927;51.210;6.838;2023-08-07T08:23:08;10.27;;;2.72;;
27491;SDS011;14927;51.210;6.838;2023-08-07T08:25:53;10.05;;;2.90;;
27491;SDS011;14927;51.210;6.838;2023-08-07T08:28:38;13.55;;;3.38;;
27491;SDS011;14927;51.210;6.838;2023-08-07T08:31:22;9.27;;;3.05;;
27491;SDS011;14927;51.210;6.838;2023-08-07T08:34:07;8.38;;;2.67;;
27491;SDS011;14927;51.210;6.838;2023-08-07T08:36:47;4.95;;;2.45;;
27491;SDS011;14927;51.210;6.838;2023-08-07T08:39:32;6.97;;;2.50;;
27491;SDS011;14927;51.210;6.838;2023-08-07T08:42:15;9.77;;;3.10;;
27491;SDS011;14927;51.210;6.838;2023-08-07T08:45:02;7.63;;;3.10;;
27491;SDS011;14927;51.210;6.838;2023-08-07T08:47:48;9.43;;;2.92;;
27491;SDS011;14927;51.210;6.838;2023-08-07T08:50:38;9.23;;;2.50;;
27491;SDS011;14927;51.210;6.838;2023-08-07T08:53:24;5.57;;;2.13;;
27491;SDS011;14927;51.210;6.838;2023-08-07T08:56:09;5.28;;;1.48;;
27491;SDS011;14927;51.210;6.838;2023-08-07T08:58:55;7.50;;;1.65;;
27491;SDS011;14927;51.210;6.838;2023-08-07T09:01:40;3.05;;;1.13;;
27491;SDS011;14927;51.210;6.838;2023-08-07T09:04:25;4.88;;;1.15;;
27491;SDS011;14927;51.210;6.838;2023-08-07T09:07:10;6.38;;;1.83;;
27491;SDS011;14927;51.210;6.838;2023-08-07T09:10:03;3.03;;;1.20;;
27491;SDS011;14927;51.210;6.838;2023-08-07T09:12:53;6.05;;;1.50;;
27491;SDS011;14927;51.210;6.838;2023-08-07T09:15:44;3.88;;;1.23;;
27491;SDS011;14927;51.210;6.838;2023-08-07T09:18:34;4.88;;;1.95;;
27491;SDS011;14927;51.210;6.838;2023-08-07T09:21:19;6.38;;;1.95;;
27491;SDS011;14927;51.210;6.838;2023-08-07T09:24:04;9.52;;;2.58;;
27491;SDS011;14927;51.210;6.838;2023-08-07T09:26:50;9.80;;;3.03;;
27491;SDS011;14927;51.210;6.838;2023-08-07T09:29:39;11.43;;;2.38;;
27491;SDS011;14927;51.210;6.838;2023-08-07T09:32:24;8.32;;;2.38;;
27491;SDS011;14927;51.210;6.838;2023-08-07T09:35:09;6.47;;;1.95;;
27491;SDS011;14927;51.210;6.838;2023-08-07T09:37:54;6.28;;;1.67;;
27491;SDS011;14927;51.210;6.838;2023-08-07T09:40:41;7.03;;;2.10;;
27491;SDS011;14927;51.210;6.838;2023-08-07T09:43:26;7.95;;;2.17;;
27491;SDS011;14927;51.210;6.838;2023-08-07T09:46:12;6.10;;;1.42;;
27491;SDS011;14927;51.210;6.838;2023-08-07T09:48:57;10.88;;;1.92;;
27491;SDS011;14927;51.210;6.838;2023-08-07T09:51:43;5.88;;;1.90;;
27491;SDS011;14927;51.210;6.838;2023-08-07T09:54:30;9.63;;;1.50;;
27491;SDS011;14927;51.210;6.838;2023-08-07T09:57:15;5.68;;;2.00;;
27491;SDS011;14927;51.210;6.838;2023-08-07T10:00:01;7.28;;;1.63;;
27491;SDS011;14927;51.210;6.838;2023-08-07T10:02:46;5.28;;;1.40;;
27491;SDS011;14927;51.210;6.838;2023-08-07T10:05:31;6.95;;;1.30;;
27491;SDS011;14927;51.210;6.838;2023-08-07T10:08:16;6.85;;;2.13;;
27491;SDS011;14927;51.210;6.838;2023-08-07T10:11:02;8.50;;;2.05;;
27491;SDS011;14927;51.210;6.838;2023-08-07T10:13:47;4.45;;;1.80;;
27491;SDS011;14927;51.210;6.838;2023-08-07T10:16:32;8.85;;;2.13;;
27491;SDS011;14927;51.210;6.838;2023-08-07T10:19:22;6.88;;;1.60;;
27491;SDS011;14927;51.210;6.838;2023-08-07T10:22:06;6.25;;;2.25;;
27491;SDS011;14927;51.210;6.838;2023-08-07T10:24:53;8.48;;;1.80;;
27491;SDS011;14927;51.210;6.838;2023-08-07T10:27:38;13.15;;;2.67;;
27491;SDS011;14927;51.210;6.838;2023-08-07T10:30:28;8.93;;;2.10;;
27491;SDS011;14927;51.210;6.838;2023-08-07T10:33:15;8.38;;;2.85;;
27491;SDS011;14927;51.210;6.838;2023-08-07T10:36:07;6.90;;;1.83;;
27491;SDS011;14927;51.210;6.838;2023-08-07T10:39:05;11.57;;;2.03;;
27491;SDS011;14927;51.210;6.838;2023-08-07T10:41:56;4.72;;;1.48;;
27491;SDS011;14927;51.210;6.838;2023-08-07T10:44:47;8.82;;;1.80;;
27491;SDS011;14927;51.210;6.838;2023-08-07T10:47:34;6.20;;;2.15;;
27491;SDS011;14927;51.210;6.838;2023-08-07T10:50:18;9.18;;;1.58;;
27491;SDS011;14927;51.210;6.838;2023-08-07T10:53:12;8.32;;;1.85;;
27491;SDS011;14927;51.210;6.838;2023-08-07T10:56:16;6.78;;;1.40;;
27491;SDS011;14927;51.210;6.838;2023-08-07T11:01:57;9.40;;;1.55;;
27491;SDS011;14927;51.210;6.838;2023-08-07T11:04:42;4.80;;;1.70;;
27491;SDS011;14927;51.210;6.838;2023-08-07T11:07:29;7.53;;;1.70;;
27491;SDS011;14927;51.210;6.838;2023-08-07T11:10:14;5.57;;;1.02;;
27491;SDS011;14927;51.210;6.838;2023-08-07T11:13:01;7.28;;;1.67;;
27491;SDS011;14927;51.210;6.838;2023-08-07T11:15:46;7.72;;;1.50;;
27491;SDS011;14927;51.210;6.838;2023-08-07T11:18:31;3.47;;;1.30;;
27491;SDS011;14927;51.210;6.838;2023-08-07T11:21:16;6.97;;;1.20;;
27491;SDS011;14927;51.210;6.838;2023-08-07T11:24:01;6.53;;;1.42;;
27491;SDS011;14927;51.210;6.838;2023-08-07T11:26:45;5.60;;;1.60;;
27491;SDS011;14927;51.210;6.838;2023-08-07T11:29:30;5.45;;;1.45;;
27491;SDS011;14927;51.210;6.838;2023-08-07T11:32:18;5.68;;;1.27;;
27491;SDS011;14927;51.210;6.838;2023-08-07T11:35:05;3.38;;;1.10;;
27491;SDS011;14927;51.210;6.838;2023-08-07T11:37:50;2.85;;;1.10;;
27491;SDS011;14927;51.210;6.838;2023-08-07T11:40:38;7.43;;;1.13;;
27491;SDS011;14927;51.210;6.838;2023-08-07T11:43:22;5.88;;;1.13;;
27491;SDS011;14927;51.210;6.838;2023-08-07T11:46:07;3.45;;;1.30;;
27491;SDS011;14927;51.210;6.838;2023-08-07T11:48:58;4.45;;;1.70;;
27491;SDS011;14927;51.210;6.838;2023-08-07T11:51:42;5.78;;;1.60;;
27491;SDS011;14927;51.210;6.838;2023-08-07T11:54:27;6.43;;;1.33;;
27491;SDS011;14927;51.210;6.838;2023-08-07T11:57:16;6.88;;;1.67;;
27491;SDS011;14927;51.210;6.838;2023-08-07T12:00:01;6.47;;;1.50;;
27491;SDS011;14927;51.210;6.838;2023-08-07T12:02:47;2.47;;;1.20;;
27491;SDS011;14927;51.210;6.838;2023-08-07T12:05:39;5.28;;;1.20;;
27491;SDS011;14927;51.210;6.838;2023-08-07T12:08:40;5.68;;;1.23;;
27491;SDS011;14927;51.210;6.838;2023-08-07T12:11:25;2.47;;;1.00;;
27491;SDS011;14927;51.210;6.838;2023-08-07T12:14:13;3.08;;;1.23;;
27491;SDS011;14927;51.210;6.838;2023-08-07T12:19:47;6.15;;;1.63;;
27491;SDS011;14927;51.210;6.838;2023-08-07T12:22:34;3.35;;;1.30;;
27491;SDS011;14927;51.210;6.838;2023-08-07T12:25:20;4.40;;;1.00;;
27491;SDS011;14927;51.210;6.838;2023-08-07T12:28:04;5.70;;;1.50;;
27491;SDS011;14927;51.210;6.838;2023-08-07T12:30:49;3.63;;;1.40;;
27491;SDS011;14927;51.210;6.838;2023-08-07T12:33:35;3.92;;;1.13;;
27491;SDS011;14927;51.210;6.838;2023-08-07T12:36:20;4.35;;;1.48;;
27491;SDS011;14927;51.210;6.838;2023-08-07T12:39:05;3.85;;;1.10;;
27491;SDS011;14927;51.210;6.838;2023-08-07T12:41:50;3.63;;;1.38;;
27491;SDS011;14927;51.210;6.838;2023-08-07T12:44:34;4.72;;;1.52;;
27491;SDS011;14927;51.210;6.838;2023-08-07T12:47:19;3.83;;;0.85;;
27491;SDS011;14927;51.210;6.838;2023-08-07T12:50:04;3.97;;;1.23;;
27491;SDS011;14927;51.210;6.838;2023-08-07T12:52:50;3.60;;;1.00;;
27491;SDS011;14927;51.210;6.838;2023-08-07T12:55:34;3.25;;;1.20;;
27491;SDS011;14927;51.210;6.838;2023-08-07T12:58:19;11.88;;;1.00;;
27491;SDS011;14927;51.210;6.838;2023-08-07T13:01:09;2.47;;;1.20;;
27491;SDS011;14927;51.210;6.838;2023-08-07T13:03:53;4.15;;;1.25;;
27491;SDS011;14927;51.210;6.838;2023-08-07T13:06:38;3.88;;;1.10;;
27491;SDS011;14927;51.210;6.838;2023-08-07T13:09:23;4.40;;;1.10;;
27491;SDS011;14927;51.210;6.838;2023-08-07T13:12:08;3.30;;;1.10;;
27491;SDS011;14927;51.210;6.838;2023-08-07T13:14:53;2.38;;;0.80;;
27491;SDS011;14927;51.210;6.838;2023-08-07T13:17:37;2.08;;;1.00;;
27491;SDS011;14927;51.210;6.838;2023-08-07T13:20:22;5.85;;;1.10;;
27491;SDS011;14927;51.210;6.838;2023-08-07T13:23:09;2.17;;;1.00;;
27491;SDS011;14927;51.210;6.838;2023-08-07T13:25:55;3.45;;;1.05;;
27491;SDS011;14927;51.210;6.838;2023-08-07T13:28:41;3.75;;;1.67;;
27491;SDS011;14927;51.210;6.838;2023-08-07T13:31:25;5.82;;;1.33;;
27491;SDS011;14927;51.210;6.838;2023-08-07T13:34:10;3.05;;;1.00;;
27491;SDS011;14927;51.210;6.838;2023-08-07T13:36:54;5.22;;;1.10;;
27491;SDS011;14927;51.210;6.838;2023-08-07T13:39:39;2.15;;;1.10;;
27491;SDS011;14927;51.210;6.838;2023-08-07T13:42:24;3.38;;;1.17;;
27491;SDS011;14927;51.210;6.838;2023-08-07T13:45:12;3.10;;;1.00;;
27491;SDS011;14927;51.210;6.838;2023-08-07T13:47:57;3.35;;;0.93;;
27491;SDS011;14927;51.210;6.838;2023-08-07T13:50:42;4.18;;;1.27;;
27491;SDS011;14927;51.210;6.838;2023-08-07T13:53:27;2.92;;;1.05;;
27491;SDS011;14927;51.210;6.838;2023-08-07T13:56:12;2.58;;;0.82;;
27491;SDS011;14927;51.210;6.838;2023-08-07T13:58:57;3.25;;;1.00;;
27491;SDS011;14927;51.210;6.838;2023-08-07T14:01:42;1.95;;;0.77;;
27491;SDS011;14927;51.210;6.838;2023-08-07T14:04:26;3.95;;;1.63;;
27491;SDS011;14927;51.210;6.838;2023-08-07T14:07:11;2.55;;;1.02;;
27491;SDS011;14927;51.210;6.838;2023-08-07T14:09:56;2.88;;;0.98;;
27491;SDS011;14927;51.210;6.838;2023-08-07T14:12:41;2.80;;;1.30;;
27491;SDS011;14927;51.210;6.838;2023-08-07T14:15:25;4.65;;;1.63;;
27491;SDS011;14927;51.210;6.838;2023-08-07T14:18:12;5.13;;;1.15;;
27491;SDS011;14927;51.210;6.838;2023-08-07T14:20:58;4.90;;;1.00;;
27491;SDS011;14927;51.210;6.838;2023-08-07T14:23:43;3.90;;;1.13;;
27491;SDS011;14927;51.210;6.838;2023-08-07T14:26:29;4.57;;;1.20;;
27491;SDS011;14927;51.210;6.838;2023-08-07T14:29:13;2.08;;;1.30;;
27491;SDS011;14927;51.210;6.838;2023-08-07T14:31:58;2.85;;;1.23;;
27491;SDS011;14927;51.210;6.838;2023-08-07T14:34:43;2.30;;;1.02;;
27491;SDS011;14927;51.210;6.838;2023-08-07T14:37:28;2.90;;;1.10;;
27491;SDS011;14927;51.210;6.838;2023-08-07T14:40:12;5.32;;;1.15;;
27491;SDS011;14927;51.210;6.838;2023-08-07T14:42:58;4.28;;;1.60;;
27491;SDS011;14927;51.210;6.838;2023-08-07T14:45:42;3.20;;;1.40;;
27491;SDS011;14927;51.210;6.838;2023-08-07T14:48:27;4.60;;;1.40;;
27491;SDS011;14927;51.210;6.838;2023-08-07T14:51:12;3.17;;;1.10;;
27491;SDS011;14927;51.210;6.838;2023-08-07T14:53:58;6.07;;;1.67;;
27491;SDS011;14927;51.210;6.838;2023-08-07T14:56:43;3.92;;;1.30;;
27491;SDS011;14927;51.210;6.838;2023-08-07T14:59:28;4.00;;;1.15;;
27491;SDS011;14927;51.210;6.838;2023-08-07T15:02:13;4.35;;;1.33;;
27491;SDS011;14927;51.210;6.838;2023-08-07T15:04:58;4.18;;;1.45;;
27491;SDS011;14927;51.210;6.838;2023-08-07T15:07:42;2.90;;;1.30;;
27491;SDS011;14927;51.210;6.838;2023-08-07T15:10:27;3.88;;;1.50;;
27491;SDS011;14927;51.210;6.838;2023-08-07T15:13:13;4.53;;;1.52;;
27491;SDS011;14927;51.210;6.838;2023-08-07T15:15:57;3.55;;;1.45;;
27491;SDS011;14927;51.210;6.838;2023-08-07T15:18:42;3.63;;;1.95;;
27491;SDS011;14927;51.210;6.838;2023-08-07T15:21:27;4.75;;;1.73;;
27491;SDS011;14927;51.210;6.838;2023-08-07T15:24:13;4.45;;;1.80;;
27491;SDS011;14927;51.210;6.838;2023-08-07T15:26:59;3.85;;;1.25;;
27491;SDS011;14927;51.210;6.838;2023-08-07T15:29:44;3.83;;;1.40;;
27491;SDS011;14927;51.210;6.838;2023-08-07T15:32:30;3.35;;;1.50;;
27491;SDS011;14927;51.210;6.838;2023-08-07T15:35:15;4.13;;;1.35;;
27491;SDS011;14927;51.210;6.838;2023-08-07T15:38:00;3.95;;;1.27;;
27491;SDS011;14927;51.210;6.838;2023-08-07T15:40:44;2.70;;;1.20;;
27491;SDS011;14927;51.210;6.838;2023-08-07T15:43:29;4.35;;;1.20;;
27491;SDS011;14927;51.210;6.838;2023-08-07T15:46:14;2.88;;;1.40;;
27491;SDS011;14927;51.210;6.838;2023-08-07T15:49:00;2.60;;;1.27;;
27491;SDS011;14927;51.210;6.838;2023-08-07T15:51:44;2.40;;;1.33;;
27491;SDS011;14927;51.210;6.838;2023-08-07T15:54:29;5.82;;;1.73;;
27491;SDS011;14927;51.210;6.838;2023-08-07T15:57:14;3.22;;;1.23;;
27491;SDS011;14927;51.210;6.838;2023-08-07T15:59:59;2.75;;;1.38;;
27491;SDS011;14927;51.210;6.838;2023-08-07T16:02:43;5.63;;;1.38;;
27491;SDS011;14927;51.210;6.838;2023-08-07T16:05:28;4.38;;;1.85;;
27491;SDS011;14927;51.210;6.838;2023-08-07T16:08:13;3.67;;;1.40;;
27491;SDS011;14927;51.210;6.838;2023-08-07T16:10:58;7.90;;;1.75;;
27491;SDS011;14927;51.210;6.838;2023-08-07T16:13:42;5.22;;;1.70;;
27491;SDS011;14927;51.210;6.838;2023-08-07T16:16:27;4.28;;;1.80;;
27491;SDS011;14927;51.210;6.838;2023-08-07T16:19:12;2.63;;;1.10;;
27491;SDS011;14927;51.210;6.838;2023-08-07T16:21:57;7.18;;;1.95;;
27491;SDS011;14927;51.210;6.838;2023-08-07T16:24:41;2.65;;;1.20;;
27491;SDS011;14927;51.210;6.838;2023-08-07T16:27:26;3.22;;;1.00;;
27491;SDS011;14927;51.210;6.838;2023-08-07T16:30:11;3.88;;;1.42;;
27491;SDS011;14927;51.210;6.838;2023-08-07T16:32:55;3.00;;;1.20;;
27491;SDS011;14927;51.210;6.838;2023-08-07T16:35:40;5.03;;;1.40;;
27491;SDS011;14927;51.210;6.838;2023-08-07T16:38:25;3.60;;;1.70;;
27491;SDS011;14927;51.210;6.838;2023-08-07T16:41:10;2.08;;;1.20;;
27491;SDS011;14927;51.210;6.838;2023-08-07T16:43:54;1.95;;;1.33;;
27491;SDS011;14927;51.210;6.838;2023-08-07T16:46:39;2.75;;;1.30;;